Time;durP1;ratioP1;P1;durP2;ratioP2;P2;SDS_P1;SDS_P2;PMS_P1;PMS_P2;Temp;Humidity;BMP_temperature;BMP_pressure;BME280_temperature;BME280_humidity;BME280_pressure;Samples;Min_cycle;Max_cycle;Signal;HPM_P1;HPM_P2
2022/01/20 00:00:51;;;;;;;;;;;;;;;;;;5114067;28;19924;-76
2022/01/20 00:03:23;;;;;;;;;;;;;;;;;;5114391;28;19915;-76
2022/01/20 00:27:27;;;;;;;;;;;;;;;;;;5114162;28;20002;-76
2022/01/20 00:30:22;;;;;;;;;;;;;;;;;;5112431;28;19920;-76
2022/01/20 00:33:02;;;;;;;;;;;;;;;;;;5112524;28;19916;-75
2022/01/20 00:37:13;;;;;;;;;;;;;;;;;;5112683;28;19976;-76
2022/01/20 00:38:13;;;;;;;;;;;;;;;;;;5113844;28;20035;-76
2022/01/20 00:40:38;;;;;;;;;;;;;;;;;;5112561;28;20365;-76
2022/01/20 00:43:04;;;;;;;;;;;;;;;;;;5095858;28;19912;-76
2022/01/20 00:45:29;;;;;;;;;;;;;;;;;;5112561;28;20373;-76
2022/01/20 00:47:55;;;;;;;;;;;;;;;;;;5113759;28;19915;-75
2022/01/20 00:50:20;;;;;;;;;;;;;;;;;;5112443;28;20285;-76
2022/01/20 00:52:45;;;;;;;;;;;;;;;;;;5113893;28;19916;-76
2022/01/20 00:55:11;;;;;;;;;;;;;;;;;;5113708;28;20369;-76
2022/01/20 00:57:36;;;;;;;;;;;;;;;;;;5112562;28;19920;-76
2022/01/20 01:00:06;;;;;;;;;;;;;;;;;;5113370;28;19924;-76
2022/01/20 01:02:33;;;;;;;;;;;;;;;;;;5114395;28;19920;-76
2022/01/20 01:04:59;;;;;;;;;;;;;;;;;;5099482;28;19964;-76
2022/01/20 01:07:43;;;;;;;;;;;;;;;;;;5117377;28;20027;-76
2022/01/20 01:10:09;;;;;;;;;;;;;;;;;;5117659;27;19918;-75
2022/01/20 01:12:58;;;;;;;;;;;;;;;;;;5115787;28;19916;-75
2022/01/20 01:15:29;;;;;;;;;;;;;;;;;;5116026;28;19916;-76
2022/01/20 01:23:24;;;;;;;;;;;;;;;;;;5117198;28;19916;-75
2022/01/20 01:25:50;;;;;;;;;;;;;;;;;;5115798;28;20001;-75
2022/01/20 01:28:16;;;;;;;;;;;;;;;;;;5116807;28;20360;-75
2022/01/20 01:33:28;;;;;;;;;;;;;;;;;;5116027;28;19930;-75
2022/01/20 01:35:57;;;;;;;;;;;;;;;;;;5115894;28;19955;-76
2022/01/20 01:38:36;;;;;;;;;;;;;;;;;;5115744;28;19919;-76
2022/01/20 01:41:11;;;;;;;;;;;;;;;;;;5098395;28;19926;-76
2022/01/20 01:43:39;;;;;;;;;;;;;;;;;;5115802;28;20421;-75
2022/01/20 01:46:05;;;;;;;;;;;;;;;;;;5116849;28;20377;-75
2022/01/20 01:48:34;;;;;;;;;;;;;;;;;;5117318;27;20014;-76
2022/01/20 01:51:00;;;;;;;;;;;;;;;;;;5137539;27;20412;-76
2022/01/20 01:53:26;;;;;;;;;;;;;;;;;;5118551;27;19915;-75
2022/01/20 01:55:52;;;;;;;;;;;;;;;;;;5118861;27;19980;-76
2022/01/20 01:58:17;;;;;;;;;;;;;;;;;;5118814;27;19915;-75
2022/01/20 02:00:59;;;;;;;;;;;;;;;;;;5118042;27;19962;-75
2022/01/20 02:03:25;;;;;;;;;;;;;;;;;;5101539;27;20357;-75
2022/01/20 02:19:12;;;;;;;;;;;;;;;;;;5118219;27;19930;-75
2022/01/20 02:21:51;;;;;;;;;;;;;;;;;;5118358;27;19920;-75
2022/01/20 02:24:19;;;;;;;;;;;;;;;;;;5136703;27;19916;-75
2022/01/20 02:26:45;;;;;;;;;;;;;;;;;;5118220;27;19922;-75
2022/01/20 02:29:17;;;;;;;;;;;;;;;;;;5117997;27;19916;-75
2022/01/20 02:31:43;;;;;;;;;;;;;;;;;;5118150;27;19969;-75
2022/01/20 02:34:10;;;;;;;;;;;;;;;;;;5117960;27;20389;-75
2022/01/20 02:36:37;;;;;;;;;;;;;;;;;;5118204;27;19915;-76
2022/01/20 02:39:19;;;;;;;;;;;;;;;;;;5117638;27;19922;-76
2022/01/20 02:47:13;;;;;;;;;;;;;;;;;;5117039;27;19920;-76
2022/01/20 02:49:39;;;;;;;;;;;;;;;;;;5135869;27;19920;-76
2022/01/20 02:52:06;;;;;;;;;;;;;;;;;;5117515;27;19968;-75
2022/01/20 02:54:31;;;;;;;;;;;;;;;;;;5117128;27;19916;-76
2022/01/20 02:56:56;;;;;;;;;;;;;;;;;;5117609;27;19916;-75
2022/01/20 02:59:22;;;;;;;;;;;;;;;;;;5117198;27;19926;-76
2022/01/20 03:01:47;;;;;;;;;;;;;;;;;;5135733;27;20305;-76
2022/01/20 03:04:12;;;;;;;;;;;;;;;;;;5117770;27;20014;-76
2022/01/20 03:06:38;;;;;;;;;;;;;;;;;;5117211;27;20006;-76
2022/01/20 03:09:04;;;;;;;;;;;;;;;;;;5117549;27;19915;-75
2022/01/20 03:11:30;;;;;;;;;;;;;;;;;;5135705;27;20288;-73
2022/01/20 03:13:55;;;;;;;;;;;;;;;;;;5135786;27;19929;-74
2022/01/20 03:16:21;;;;;;;;;;;;;;;;;;5116927;27;19994;-75
2022/01/20 03:18:46;;;;;;;;;;;;;;;;;;5116915;27;20288;-75
2022/01/20 03:21:12;;;;;;;;;;;;;;;;;;5117174;27;19924;-79
2022/01/20 03:23:37;;;;;;;;;;;;;;;;;;5117631;27;19922;-76
2022/01/20 03:26:03;;;;;;;;;;;;;;;;;;5135858;27;20333;-74
2022/01/20 03:28:28;;;;;;;;;;;;;;;;;;5116744;27;19919;-74
2022/01/20 03:30:54;;;;;;;;;;;;;;;;;;5116897;27;20042;-74
2022/01/20 03:33:19;;;;;;;;;;;;;;;;;;5117117;27;19945;-73
2022/01/20 03:35:45;;;;;;;;;;;;;;;;;;5099923;27;19966;-74
2022/01/20 03:38:36;;;;;;;;;;;;;;;;;;5120627;27;19916;-74
2022/01/20 03:41:02;;;;;;;;;;;;;;;;;;5116611;27;19924;-73
2022/01/20 03:43:28;;;;;;;;;;;;;;;;;;5116708;27;19938;-74
2022/01/20 03:45:56;;;;;;;;;;;;;;;;;;5116274;27;20396;-75
2022/01/20 03:48:24;;;;;;;;;;;;;;;;;;5116621;27;19916;-76
2022/01/20 03:50:59;;;;;;;;;;;;;;;;;;5116676;27;19986;-76
2022/01/20 03:53:25;;;;;;;;;;;;;;;;;;5116892;27;19915;-75
2022/01/20 03:55:53;;;;;;;;;;;;;;;;;;5116740;27;19944;-74
2022/01/20 03:58:19;;;;;;;;;;;;;;;;;;5116418;27;19919;-75
2022/01/20 04:00:45;;;;;;;;;;;;;;;;;;5116552;28;19923;-75
2022/01/20 04:03:27;;;;;;;;;;;;;;;;;;5115774;27;19916;-74
2022/01/20 04:05:57;;;;;;;;;;;;;;;;;;5114626;27;19958;-74
2022/01/20 04:08:31;;;;;;;;;;;;;;;;;;5116495;27;19915;-74
2022/01/20 04:10:56;;;;;;;;;;;;;;;;;;5099459;28;19916;-74
2022/01/20 04:13:22;;;;;;;;;;;;;;;;;;5116178;27;20284;-75
2022/01/20 04:15:48;;;;;;;;;;;;;;;;;;5116315;28;19994;-74
2022/01/20 04:18:20;;;;;;;;;;;;;;;;;;5134773;27;20010;-74
2022/01/20 04:20:46;;;;;;;;;;;;;;;;;;5116079;28;19927;-75
2022/01/20 04:23:11;;;;;;;;;;;;;;;;;;5116356;28;20356;-75
2022/01/20 04:25:37;;;;;;;;;;;;;;;;;;5116245;28;19922;-75
2022/01/20 04:28:02;;;;;;;;;;;;;;;;;;5114967;28;20006;-74
2022/01/20 04:30:29;;;;;;;;;;;;;;;;;;5114303;28;19915;-74
2022/01/20 04:32:55;;;;;;;;;;;;;;;;;;5132794;28;19941;-76
2022/01/20 04:35:20;;;;;;;;;;;;;;;;;;5097389;28;19931;-75
2022/01/20 04:37:48;;;;;;;;;;;;;;;;;;5116456;27;19916;-74
2022/01/20 04:40:14;;;;;;;;;;;;;;;;;;5118118;27;20369;-75
2022/01/20 04:42:42;;;;;;;;;;;;;;;;;;5119060;27;19959;-76
2022/01/20 04:45:10;;;;;;;;;;;;;;;;;;5121354;27;20009;-75
2022/01/20 04:47:45;;;;;;;;;;;;;;;;;;5120383;27;20314;-75
2022/01/20 04:58:23;;;;;;;;;;;;;;;;;;5136016;27;19916;-74
2022/01/20 05:00:49;;;;;;;;;;;;;;;;;;5117552;27;20353;-75
2022/01/20 05:03:47;;;;;;;;;;;;;;;;;;5090289;27;19922;-75
2022/01/20 05:06:25;;;;;;;;;;;;;;;;;;5117478;27;20002;-75
2022/01/20 05:08:52;;;;;;;;;;;;;;;;;;5100801;27;20007;-75
2022/01/20 05:11:17;;;;;;;;;;;;;;;;;;5119055;27;19931;-75
2022/01/20 05:13:43;;;;;;;;;;;;;;;;;;5116219;28;19941;-75
2022/01/20 05:16:09;;;;;;;;;;;;;;;;;;5117364;28;19915;-74
2022/01/20 05:18:35;;;;;;;;;;;;;;;;;;5099252;28;20442;-75
2022/01/20 05:21:00;;;;;;;;;;;;;;;;;;5099137;28;20444;-76
2022/01/20 05:23:26;;;;;;;;;;;;;;;;;;5099061;28;19916;-74
2022/01/20 05:25:51;;;;;;;;;;;;;;;;;;5117148;28;19927;-73
2022/01/20 05:28:20;;;;;;;;;;;;;;;;;;5098584;28;19916;-76
2022/01/20 05:30:45;;;;;;;;;;;;;;;;;;5082182;28;20049;-74
2022/01/20 05:33:22;;;;;;;;;;;;;;;;;;5098985;28;20377;-74
2022/01/20 05:35:49;;;;;;;;;;;;;;;;;;5098895;28;19916;-73
2022/01/20 05:38:14;;;;;;;;;;;;;;;;;;5094999;28;19915;-72
2022/01/20 05:40:43;;;;;;;;;;;;;;;;;;5097654;28;20412;-73
2022/01/20 05:43:08;;;;;;;;;;;;;;;;;;5116168;28;19916;-73
2022/01/20 05:45:35;;;;;;;;;;;;;;;;;;5098393;28;19915;-73
2022/01/20 05:48:11;;;;;;;;;;;;;;;;;;5079729;28;19916;-74
2022/01/20 05:50:54;;;;;;;;;;;;;;;;;;5101265;28;19927;-75
2022/01/20 05:53:20;;;;;;;;;;;;;;;;;;5098639;28;19915;-74
2022/01/20 05:55:45;;;;;;;;;;;;;;;;;;5098379;28;20312;-74
2022/01/20 05:58:10;;;;;;;;;;;;;;;;;;5098092;28;19916;-74
2022/01/20 06:00:36;;;;;;;;;;;;;;;;;;5097783;28;19920;-74
2022/01/20 06:05:45;;;;;;;;;;;;;;;;;;5116322;28;19999;-75
2022/01/20 06:08:13;;;;;;;;;;;;;;;;;;5098157;28;19923;-74
2022/01/20 06:10:39;;;;;;;;;;;;;;;;;;5116451;28;19915;-74
2022/01/20 06:13:11;;;;;;;;;;;;;;;;;;5098305;28;19923;-74
2022/01/20 06:15:36;;;;;;;;;;;;;;;;;;5098066;28;20281;-74
2022/01/20 06:18:02;;;;;;;;;;;;;;;;;;5098043;28;20297;-74
2022/01/20 06:20:28;;;;;;;;;;;;;;;;;;5097986;28;19920;-74
2022/01/20 06:22:54;;;;;;;;;;;;;;;;;;5097839;28;19960;-74
2022/01/20 06:25:19;;;;;;;;;;;;;;;;;;5081102;28;19916;-74
2022/01/20 06:27:44;;;;;;;;;;;;;;;;;;5098062;28;19916;-74
2022/01/20 06:30:10;;;;;;;;;;;;;;;;;;5116069;28;19942;-74
2022/01/20 06:32:36;;;;;;;;;;;;;;;;;;5115972;28;19922;-74
2022/01/20 06:35:04;;;;;;;;;;;;;;;;;;5097719;28;19965;-74
2022/01/20 06:37:29;;;;;;;;;;;;;;;;;;5097836;28;19920;-74
2022/01/20 06:39:54;;;;;;;;;;;;;;;;;;5097462;28;19951;-74
2022/01/20 06:42:20;;;;;;;;;;;;;;;;;;5097698;28;19916;-74
2022/01/20 06:44:45;;;;;;;;;;;;;;;;;;5097448;28;19915;-74
2022/01/20 06:47:11;;;;;;;;;;;;;;;;;;5097449;28;19911;-74
2022/01/20 06:49:37;;;;;;;;;;;;;;;;;;5097337;28;19920;-74
2022/01/20 06:52:05;;;;;;;;;;;;;;;;;;5097416;28;19915;-74
2022/01/20 06:54:31;;;;;;;;;;;;;;;;;;5097168;28;20426;-74
2022/01/20 06:56:59;;;;;;;;;;;;;;;;;;5097151;28;20424;-74
2022/01/20 06:59:24;;;;;;;;;;;;;;;;;;5096797;28;19916;-74
2022/01/20 07:01:50;;;;;;;;;;;;;;;;;;5115310;28;19927;-74
2022/01/20 07:04:19;;;;;;;;;;;;;;;;;;5097348;28;19916;-74
2022/01/20 07:06:45;;;;;;;;;;;;;;;;;;5097107;28;19922;-74
2022/01/20 07:09:29;;;;;;;;;;;;;;;;;;5099891;28;19968;-74
2022/01/20 07:12:00;;;;;;;;;;;;;;;;;;5097055;28;20280;-74
2022/01/20 07:14:25;;;;;;;;;;;;;;;;;;5096604;28;20318;-74
2022/01/20 07:16:51;;;;;;;;;;;;;;;;;;5080006;28;19968;-74
2022/01/20 07:19:16;;;;;;;;;;;;;;;;;;5096764;28;19916;-74
2022/01/20 07:21:42;;;;;;;;;;;;;;;;;;5096937;28;19924;-74
2022/01/20 07:24:11;;;;;;;;;;;;;;;;;;5096753;28;19915;-74
2022/01/20 07:26:36;;;;;;;;;;;;;;;;;;5096705;28;19926;-74
2022/01/20 07:29:15;;;;;;;;;;;;;;;;;;5095910;28;19922;-74
2022/01/20 07:31:41;;;;;;;;;;;;;;;;;;5103042;27;19915;-75
2022/01/20 07:34:09;;;;;;;;;;;;;;;;;;5100098;27;19916;-74
2022/01/20 07:36:34;;;;;;;;;;;;;;;;;;5117186;27;19975;-76
2022/01/20 07:39:00;;;;;;;;;;;;;;;;;;5134688;27;19916;-75
2022/01/20 07:41:25;;;;;;;;;;;;;;;;;;5116860;27;19920;-74
2022/01/20 07:43:53;;;;;;;;;;;;;;;;;;5134705;27;19965;-74
2022/01/20 07:46:37;;;;;;;;;;;;;;;;;;5135014;27;19922;-75
2022/01/20 07:49:07;;;;;;;;;;;;;;;;;;5116480;27;20373;-76
2022/01/20 07:51:33;;;;;;;;;;;;;;;;;;5116398;27;19926;-75
2022/01/20 07:53:58;;;;;;;;;;;;;;;;;;5116274;27;20316;-75
2022/01/20 07:56:24;;;;;;;;;;;;;;;;;;5116636;27;19915;-75
2022/01/20 07:58:50;;;;;;;;;;;;;;;;;;5134940;27;19973;-75
2022/01/20 08:01:15;;;;;;;;;;;;;;;;;;5115943;27;19919;-75
2022/01/20 08:03:49;;;;;;;;;;;;;;;;;;5116547;27;19916;-75
2022/01/20 08:06:19;;;;;;;;;;;;;;;;;;5116161;27;19947;-74
2022/01/20 08:08:46;;;;;;;;;;;;;;;;;;5116487;27;20339;-74
2022/01/20 08:11:44;;;;;;;;;;;;;;;;;;5104456;28;19959;-75
2022/01/20 08:14:37;;;;;;;;;;;;;;;;;;5095052;28;19923;-76
2022/01/20 08:17:02;;;;;;;;;;;;;;;;;;5095972;28;19920;-76
2022/01/20 08:19:33;;;;;;;;;;;;;;;;;;5099359;28;19985;-77
2022/01/20 08:21:58;;;;;;;;;;;;;;;;;;5098355;28;19973;-78
2022/01/20 08:24:24;;;;;;;;;;;;;;;;;;5115826;28;20357;-79
2022/01/20 08:26:49;;;;;;;;;;;;;;;;;;5109127;28;19920;-78
2022/01/20 08:29:14;;;;;;;;;;;;;;;;;;5108860;28;20018;-79
2022/01/20 08:31:40;;;;;;;;;;;;;;;;;;5110931;28;19912;-79
2022/01/20 08:34:26;;;;;;;;;;;;;;;;;;5108751;28;19916;-78
2022/01/20 08:37:31;;;;;;;;;;;;;;;;;;5112545;28;19990;-78
2022/01/20 08:39:56;;;;;;;;;;;;;;;;;;5105688;28;19990;-77
2022/01/20 08:42:23;;;;;;;;;;;;;;;;;;5106666;28;19919;-78
2022/01/20 08:44:48;;;;;;;;;;;;;;;;;;5126054;28;19915;-78
2022/01/20 08:47:17;;;;;;;;;;;;;;;;;;5107511;28;19915;-77
2022/01/20 08:49:45;;;;;;;;;;;;;;;;;;5122276;28;19920;-78
2022/01/20 08:52:15;;;;;;;;;;;;;;;;;;5100822;28;19965;-78
2022/01/20 08:54:47;;;;;;;;;;;;;;;;;;5096040;28;20013;-78
2022/01/20 08:57:26;;;;;;;;;;;;;;;;;;5098271;28;20404;-77
2022/01/20 08:59:52;;;;;;;;;;;;;;;;;;5095358;28;19915;-76
2022/01/20 09:02:18;;;;;;;;;;;;;;;;;;5114748;28;19915;-76
2022/01/20 09:04:44;;;;;;;;;;;;;;;;;;5134006;28;19926;-76
2022/01/20 09:07:33;;;;;;;;;;;;;;;;;;5101991;27;19916;-76
2022/01/20 09:10:00;;;;;;;;;;;;;;;;;;5115852;28;19923;-76
2022/01/20 09:17:41;;;;;;;;;;;;;;;;;;5134269;27;20368;-76
2022/01/20 09:20:07;;;;;;;;;;;;;;;;;;5098392;28;19927;-76
2022/01/20 09:22:32;;;;;;;;;;;;;;;;;;5115927;27;20470;-76
2022/01/20 09:24:58;;;;;;;;;;;;;;;;;;5119367;27;19916;-76
2022/01/20 09:27:23;;;;;;;;;;;;;;;;;;5102689;27;19926;-75
2022/01/20 09:29:49;;;;;;;;;;;;;;;;;;5118731;27;20006;-75
2022/01/20 09:32:16;;;;;;;;;;;;;;;;;;5102525;27;19915;-76
2022/01/20 09:34:43;;;;;;;;;;;;;;;;;;5118964;27;19919;-76
2022/01/20 09:37:09;;;;;;;;;;;;;;;;;;5118725;27;20007;-76
2022/01/20 09:39:40;;;;;;;;;;;;;;;;;;5119028;27;19961;-76
2022/01/20 09:42:19;;;;;;;;;;;;;;;;;;5119144;27;19920;-76
2022/01/20 09:44:45;;;;;;;;;;;;;;;;;;5137468;27;19973;-76
2022/01/20 09:47:12;;;;;;;;;;;;;;;;;;5119004;27;19980;-77
2022/01/20 09:50:00;;;;;;;;;;;;;;;;;;5137182;27;19919;-76
2022/01/20 09:52:34;;;;;;;;;;;;;;;;;;5114420;28;19920;-76
2022/01/20 09:55:15;;;;;;;;;;;;;;;;;;5098034;28;19915;-75
2022/01/20 09:57:40;;;;;;;;;;;;;;;;;;5098704;28;19916;-76
2022/01/20 10:00:07;;;;;;;;;;;;;;;;;;5101102;27;19919;-76
2022/01/20 10:02:58;;;;;;;;;;;;;;;;;;5137247;27;20269;-76
2022/01/20 10:05:26;;;;;;;;;;;;;;;;;;5118838;27;19923;-76
2022/01/20 10:07:52;;;;;;;;;;;;;;;;;;5118994;27;20251;-76
2022/01/20 10:10:36;;;;;;;;;;;;;;;;;;5118940;27;20301;-76
2022/01/20 10:13:25;;;;;;;;;;;;;;;;;;5136945;27;20427;-76
2022/01/20 10:16:10;;;;;;;;;;;;;;;;;;5137186;27;19914;-75
2022/01/20 10:18:55;;;;;;;;;;;;;;;;;;5118180;27;19930;-76
2022/01/20 10:21:34;;;;;;;;;;;;;;;;;;5118404;27;19919;-76
2022/01/20 10:24:30;;;;;;;;;;;;;;;;;;5118391;27;19915;-76
2022/01/20 10:27:15;;;;;;;;;;;;;;;;;;5136069;27;19922;-76
2022/01/20 10:29:59;;;;;;;;;;;;;;;;;;5118059;27;19919;-76
2022/01/20 10:32:26;;;;;;;;;;;;;;;;;;5100619;27;20348;-76
2022/01/20 10:35:05;;;;;;;;;;;;;;;;;;5117428;27;19968;-76
2022/01/20 10:37:33;;;;;;;;;;;;;;;;;;5117970;27;19919;-76
2022/01/20 10:40:04;;;;;;;;;;;;;;;;;;5118027;27;20010;-76
2022/01/20 10:42:34;;;;;;;;;;;;;;;;;;5101780;27;19922;-78
2022/01/20 10:45:00;;;;;;;;;;;;;;;;;;5119724;27;20558;-78
2022/01/20 10:47:29;;;;;;;;;;;;;;;;;;5119332;27;19915;-76
2022/01/20 10:50:15;;;;;;;;;;;;;;;;;;5117871;27;19920;-75
2022/01/20 10:52:49;;;;;;;;;;;;;;;;;;5117553;27;20000;-77
2022/01/20 10:55:22;;;;;;;;;;;;;;;;;;5100890;27;19976;-74
2022/01/20 10:57:50;;;;;;;;;;;;;;;;;;5116606;27;20292;-75
2022/01/20 11:00:19;;;;;;;;;;;;;;;;;;5135831;27;20233;-74
2022/01/20 11:02:50;;;;;;;;;;;;;;;;;;5117001;27;19924;-74
2022/01/20 11:05:16;;;;;;;;;;;;;;;;;;5135737;27;19923;-73
2022/01/20 11:07:44;;;;;;;;;;;;;;;;;;5117299;27;20006;-78
2022/01/20 11:10:11;;;;;;;;;;;;;;;;;;5118468;27;20324;-78
2022/01/20 11:12:45;;;;;;;;;;;;;;;;;;5131598;27;19960;-77
2022/01/20 11:15:19;;;;;;;;;;;;;;;;;;5101559;27;20281;-77
2022/01/20 11:17:50;;;;;;;;;;;;;;;;;;5100592;27;19916;-77
2022/01/20 11:20:17;;;;;;;;;;;;;;;;;;5138110;27;19919;-79
2022/01/20 11:22:57;;;;;;;;;;;;;;;;;;5102458;27;19920;-78
2022/01/20 11:25:28;;;;;;;;;;;;;;;;;;5108278;28;20010;-79
2022/01/20 11:28:09;;;;;;;;;;;;;;;;;;5118453;28;19922;-79
2022/01/20 11:30:54;;;;;;;;;;;;;;;;;;5127889;27;19915;-80
2022/01/20 11:33:32;;;;;;;;;;;;;;;;;;5123632;27;19931;-79
2022/01/20 11:35:59;;;;;;;;;;;;;;;;;;5127000;27;19922;-79
2022/01/20 11:38:47;;;;;;;;;;;;;;;;;;5141722;27;19915;-77
2022/01/20 11:41:14;;;;;;;;;;;;;;;;;;5116763;27;19924;-75
2022/01/20 11:43:42;;;;;;;;;;;;;;;;;;5130777;27;19923;-75
2022/01/20 11:46:16;;;;;;;;;;;;;;;;;;5128161;27;19968;-75
2022/01/20 11:48:56;;;;;;;;;;;;;;;;;;5135052;27;20010;-75
2022/01/20 11:51:22;;;;;;;;;;;;;;;;;;5116652;27;19970;-75
2022/01/20 11:53:58;;;;;;;;;;;;;;;;;;5134420;27;19919;-75
2022/01/20 11:56:43;;;;;;;;;;;;;;;;;;5134966;27;19915;-75
2022/01/20 11:59:10;;;;;;;;;;;;;;;;;;5134763;27;19946;-75
2022/01/20 12:01:49;;;;;;;;;;;;;;;;;;5134185;27;19919;-75
2022/01/20 12:04:15;;;;;;;;;;;;;;;;;;5116587;27;19940;-76
2022/01/20 12:06:48;;;;;;;;;;;;;;;;;;5116517;27;19923;-75
2022/01/20 12:09:27;;;;;;;;;;;;;;;;;;5134756;27;19921;-75
2022/01/20 12:11:52;;;;;;;;;;;;;;;;;;5134781;27;19916;-75
2022/01/20 12:14:36;;;;;;;;;;;;;;;;;;5116317;28;19915;-75
2022/01/20 12:17:10;;;;;;;;;;;;;;;;;;5134740;27;19920;-75
2022/01/20 12:19:35;;;;;;;;;;;;;;;;;;5134562;27;19915;-75
2022/01/20 12:22:02;;;;;;;;;;;;;;;;;;5134778;28;19926;-75
2022/01/20 12:24:27;;;;;;;;;;;;;;;;;;5134648;28;20364;-75
2022/01/20 12:26:52;;;;;;;;;;;;;;;;;;5134651;28;19919;-75
2022/01/20 12:29:18;;;;;;;;;;;;;;;;;;5116246;28;19947;-75
2022/01/20 12:31:52;;;;;;;;;;;;;;;;;;5134660;28;19911;-75
2022/01/20 12:34:21;;;;;;;;;;;;;;;;;;5134820;28;20266;-75
2022/01/20 12:36:50;;;;;;;;;;;;;;;;;;5115428;28;19915;-75
2022/01/20 12:39:21;;;;;;;;;;;;;;;;;;5134680;27;19916;-75
2022/01/20 12:41:52;;;;;;;;;;;;;;;;;;5134523;28;19919;-75
2022/01/20 12:44:17;;;;;;;;;;;;;;;;;;5134184;28;20425;-75
2022/01/20 12:46:46;;;;;;;;;;;;;;;;;;5134044;28;20023;-75
2022/01/20 12:49:12;;;;;;;;;;;;;;;;;;5134262;27;19924;-75
2022/01/20 12:51:42;;;;;;;;;;;;;;;;;;5116244;28;20428;-75
2022/01/20 12:54:16;;;;;;;;;;;;;;;;;;5134483;28;20310;-75
2022/01/20 12:56:45;;;;;;;;;;;;;;;;;;5134467;28;19915;-75
2022/01/20 12:59:11;;;;;;;;;;;;;;;;;;5137343;27;20063;-75
2022/01/20 13:01:38;;;;;;;;;;;;;;;;;;5137596;27;20017;-75
2022/01/20 13:04:05;;;;;;;;;;;;;;;;;;5138326;27;19927;-75
2022/01/20 13:06:32;;;;;;;;;;;;;;;;;;5138404;27;19912;-75
2022/01/20 13:09:06;;;;;;;;;;;;;;;;;;5138024;27;20003;-75
2022/01/20 13:11:33;;;;;;;;;;;;;;;;;;5138148;27;20482;-75
2022/01/20 13:14:00;;;;;;;;;;;;;;;;;;5137986;27;19915;-76
2022/01/20 13:16:25;;;;;;;;;;;;;;;;;;5137843;27;19916;-75
2022/01/20 13:18:51;;;;;;;;;;;;;;;;;;5119364;27;19933;-75
2022/01/20 13:21:18;;;;;;;;;;;;;;;;;;5137883;27;19973;-75
2022/01/20 13:23:56;;;;;;;;;;;;;;;;;;5131573;27;19961;-75
2022/01/20 13:26:21;;;;;;;;;;;;;;;;;;5137701;27;19916;-75
2022/01/20 13:29:16;;;;;;;;;;;;;;;;;;5137400;27;19915;-75
2022/01/20 13:31:41;;;;;;;;;;;;;;;;;;5101957;27;20070;-75
2022/01/20 13:34:13;;;;;;;;;;;;;;;;;;5137816;27;19915;-75
2022/01/20 13:36:39;;;;;;;;;;;;;;;;;;5137832;27;19916;-74
2022/01/20 13:39:05;;;;;;;;;;;;;;;;;;5118232;27;20413;-74
2022/01/20 13:41:30;;;;;;;;;;;;;;;;;;5137341;27;19962;-74
2022/01/20 13:46:42;;;;;;;;;;;;;;;;;;5136757;27;19962;-74
2022/01/20 13:49:12;;;;;;;;;;;;;;;;;;5136823;27;19959;-74
2022/01/20 13:51:38;;;;;;;;;;;;;;;;;;5137385;27;19929;-74
2022/01/20 13:54:04;;;;;;;;;;;;;;;;;;5137350;27;19919;-74
2022/01/20 13:56:30;;;;;;;;;;;;;;;;;;5118667;27;19922;-74
2022/01/20 13:59:03;;;;;;;;;;;;;;;;;;5137058;27;20361;-74
2022/01/20 14:01:28;;;;;;;;;;;;;;;;;;5136491;27;19991;-75
2022/01/20 14:03:53;;;;;;;;;;;;;;;;;;5136901;27;19919;-75
2022/01/20 14:06:19;;;;;;;;;;;;;;;;;;5137101;27;19916;-75
2022/01/20 14:08:44;;;;;;;;;;;;;;;;;;5136570;27;19915;-75
2022/01/20 14:11:09;;;;;;;;;;;;;;;;;;5136002;27;19915;-75
2022/01/20 14:13:35;;;;;;;;;;;;;;;;;;5137263;27;20018;-75
2022/01/20 14:16:02;;;;;;;;;;;;;;;;;;5136969;27;19923;-75
2022/01/20 14:18:31;;;;;;;;;;;;;;;;;;5136009;27;20014;-75
2022/01/20 14:20:57;;;;;;;;;;;;;;;;;;5117991;27;20369;-75
2022/01/20 14:23:22;;;;;;;;;;;;;;;;;;5136739;27;19967;-76
2022/01/20 14:25:48;;;;;;;;;;;;;;;;;;5118369;27;19911;-76
2022/01/20 14:28:14;;;;;;;;;;;;;;;;;;5136939;27;19968;-75
2022/01/20 14:30:39;;;;;;;;;;;;;;;;;;5135071;27;19919;-76
2022/01/20 14:33:06;;;;;;;;;;;;;;;;;;5136866;27;19915;-75
2022/01/20 14:35:32;;;;;;;;;;;;;;;;;;5135751;27;19915;-74
2022/01/20 14:37:58;;;;;;;;;;;;;;;;;;5136495;27;20372;-74
2022/01/20 14:40:23;;;;;;;;;;;;;;;;;;5136582;27;19976;-76
2022/01/20 14:42:50;;;;;;;;;;;;;;;;;;5136051;27;19961;-77
2022/01/20 14:45:18;;;;;;;;;;;;;;;;;;5135673;27;19937;-74
2022/01/20 14:47:44;;;;;;;;;;;;;;;;;;5136408;27;19915;-74
2022/01/20 14:50:09;;;;;;;;;;;;;;;;;;5136025;27;19927;-74
2022/01/20 14:52:35;;;;;;;;;;;;;;;;;;5117570;27;19915;-74
2022/01/20 14:55:00;;;;;;;;;;;;;;;;;;5136059;27;20539;-74
2022/01/20 14:57:26;;;;;;;;;;;;;;;;;;5135825;27;20056;-74
2022/01/20 14:59:52;;;;;;;;;;;;;;;;;;5099855;27;19930;-73
2022/01/20 15:02:18;;;;;;;;;;;;;;;;;;5135543;27;19920;-74
2022/01/20 15:04:44;;;;;;;;;;;;;;;;;;5117659;27;19915;-73
2022/01/20 15:07:11;;;;;;;;;;;;;;;;;;5135050;27;19916;-74
2022/01/20 15:09:37;;;;;;;;;;;;;;;;;;5135599;27;19923;-74
2022/01/20 15:12:02;;;;;;;;;;;;;;;;;;5117656;27;19915;-73
2022/01/20 15:14:27;;;;;;;;;;;;;;;;;;5135591;27;19938;-73
2022/01/20 15:16:53;;;;;;;;;;;;;;;;;;5134455;27;20429;-73
2022/01/20 15:19:18;;;;;;;;;;;;;;;;;;5134656;27;19916;-73
2022/01/20 15:21:44;;;;;;;;;;;;;;;;;;5135325;27;20385;-73
2022/01/20 15:24:09;;;;;;;;;;;;;;;;;;5134688;27;19967;-73
2022/01/20 15:26:35;;;;;;;;;;;;;;;;;;5135508;27;19916;-73
2022/01/20 15:29:00;;;;;;;;;;;;;;;;;;5135650;27;19957;-73
2022/01/20 15:31:27;;;;;;;;;;;;;;;;;;5117132;27;20383;-73
2022/01/20 15:33:53;;;;;;;;;;;;;;;;;;5135455;27;19919;-72
2022/01/20 15:36:18;;;;;;;;;;;;;;;;;;5135420;27;19915;-72
2022/01/20 15:38:43;;;;;;;;;;;;;;;;;;5135431;27;19958;-72
2022/01/20 15:41:09;;;;;;;;;;;;;;;;;;5133675;27;19919;-72
2022/01/20 15:43:34;;;;;;;;;;;;;;;;;;5135330;27;19923;-72
2022/01/20 15:46:01;;;;;;;;;;;;;;;;;;5135384;27;19923;-73
2022/01/20 15:48:26;;;;;;;;;;;;;;;;;;5134845;27;19962;-73
2022/01/20 15:50:52;;;;;;;;;;;;;;;;;;5116815;27;19958;-72
2022/01/20 15:53:17;;;;;;;;;;;;;;;;;;5135028;27;20364;-73
2022/01/20 15:55:43;;;;;;;;;;;;;;;;;;5135254;27;20022;-73
2022/01/20 15:58:09;;;;;;;;;;;;;;;;;;5135176;27;19915;-73
2022/01/20 16:00:35;;;;;;;;;;;;;;;;;;5115884;27;20276;-73
2022/01/20 16:03:00;;;;;;;;;;;;;;;;;;5116549;27;19937;-73
2022/01/20 16:05:26;;;;;;;;;;;;;;;;;;5134957;27;19919;-73
2022/01/20 16:07:51;;;;;;;;;;;;;;;;;;5115397;27;20008;-73
2022/01/20 16:10:16;;;;;;;;;;;;;;;;;;5134801;27;19921;-74
2022/01/20 16:12:42;;;;;;;;;;;;;;;;;;5134889;27;20407;-74
2022/01/20 16:15:08;;;;;;;;;;;;;;;;;;5099554;27;19916;-74
2022/01/20 16:17:34;;;;;;;;;;;;;;;;;;5134685;27;19923;-74
2022/01/20 16:20:00;;;;;;;;;;;;;;;;;;5134808;27;19938;-74
2022/01/20 16:22:26;;;;;;;;;;;;;;;;;;5134598;27;19961;-74
2022/01/20 16:24:51;;;;;;;;;;;;;;;;;;5134847;28;19911;-74
2022/01/20 16:27:16;;;;;;;;;;;;;;;;;;5134728;28;20006;-74
2022/01/20 16:29:41;;;;;;;;;;;;;;;;;;5134733;27;19970;-74
2022/01/20 16:32:07;;;;;;;;;;;;;;;;;;5134516;27;19922;-74
2022/01/20 16:34:32;;;;;;;;;;;;;;;;;;5138474;27;20338;-74
2022/01/20 16:36:58;;;;;;;;;;;;;;;;;;5137836;27;19919;-74
2022/01/20 16:39:23;;;;;;;;;;;;;;;;;;5138275;27;20295;-74
2022/01/20 16:41:48;;;;;;;;;;;;;;;;;;5137921;27;19919;-73
2022/01/20 16:44:15;;;;;;;;;;;;;;;;;;5138497;27;19915;-74
2022/01/20 16:46:40;;;;;;;;;;;;;;;;;;5138432;27;19916;-74
2022/01/20 16:49:06;;;;;;;;;;;;;;;;;;5119672;27;20353;-74
2022/01/20 16:51:31;;;;;;;;;;;;;;;;;;5138470;27;19922;-74
2022/01/20 16:53:56;;;;;;;;;;;;;;;;;;5138557;27;19916;-74
2022/01/20 16:56:22;;;;;;;;;;;;;;;;;;5138470;27;20368;-74
2022/01/20 16:58:47;;;;;;;;;;;;;;;;;;5138211;27;20353;-74
2022/01/20 17:01:12;;;;;;;;;;;;;;;;;;5119224;27;20311;-74
2022/01/20 17:03:38;;;;;;;;;;;;;;;;;;5138272;27;19919;-74
2022/01/20 17:06:04;;;;;;;;;;;;;;;;;;5138261;27;19915;-74
2022/01/20 17:08:29;;;;;;;;;;;;;;;;;;5138161;27;20365;-74
2022/01/20 17:10:55;;;;;;;;;;;;;;;;;;5138279;27;19916;-74
2022/01/20 17:13:20;;;;;;;;;;;;;;;;;;5138258;27;20002;-75
2022/01/20 17:15:46;;;;;;;;;;;;;;;;;;5138277;27;19921;-75
2022/01/20 17:18:12;;;;;;;;;;;;;;;;;;5137893;27;19961;-74
2022/01/20 17:20:38;;;;;;;;;;;;;;;;;;5137848;27;20377;-75
2022/01/20 17:23:03;;;;;;;;;;;;;;;;;;5138079;27;19960;-74
2022/01/20 17:25:29;;;;;;;;;;;;;;;;;;5137957;27;19915;-74
2022/01/20 17:27:54;;;;;;;;;;;;;;;;;;5139299;27;20245;-75
2022/01/20 17:30:22;;;;;;;;;;;;;;;;;;5137964;27;19915;-77
2022/01/20 17:32:48;;;;;;;;;;;;;;;;;;5121388;27;19923;-77
2022/01/20 17:35:13;;;;;;;;;;;;;;;;;;5122008;27;19919;-79
2022/01/20 17:37:38;;;;;;;;;;;;;;;;;;5138659;27;19925;-78
2022/01/20 17:40:07;;;;;;;;;;;;;;;;;;5137930;27;19951;-76
2022/01/20 17:42:32;;;;;;;;;;;;;;;;;;5141966;27;19922;-76
2022/01/20 17:44:58;;;;;;;;;;;;;;;;;;5119282;27;19915;-77
2022/01/20 17:47:23;;;;;;;;;;;;;;;;;;5118003;27;19915;-77
2022/01/20 17:49:48;;;;;;;;;;;;;;;;;;5110780;28;19920;-77
2022/01/20 17:52:14;;;;;;;;;;;;;;;;;;5107151;28;19966;-80
2022/01/20 17:54:41;;;;;;;;;;;;;;;;;;5114671;28;20287;-76
2022/01/20 17:57:06;;;;;;;;;;;;;;;;;;5117112;28;19922;-79
2022/01/20 17:59:31;;;;;;;;;;;;;;;;;;5120366;28;19916;-82
2022/01/20 18:01:57;;;;;;;;;;;;;;;;;;5102058;28;19920;-77
2022/01/20 18:04:23;;;;;;;;;;;;;;;;;;5118298;28;19923;-80